Mims, Florida
Current Conditions -  °F | °C
As of 11:58 PM on Saturday 20 Dec 2014 (Local Time) from KTTS Reporting Station
Broken Clouds Broken Clouds  
Wind Chill: 60°   Ceiling: 10000
Heat Index: 60°   Visibility: 10mi
Dew Point: 59°   Wind: 0mph
Humidity: 94%   Direction: NA
Pressure: 30.09"   Gusts: NA
Location:  28.66°N, 80.85°W
Report Text: KTTS 210458Z AUTO 00000KT 10SM BKN100 16/15 A3009 RMK AO2 SLP192 T01570148 402550109
Loading
Personal Weather Stations






























Interactive Weather Map New forecast layout! Learn more

10-Day Weather Forecast

Advertisements
Track Severe Weather on mobile